Terminal Aerodrome Forecast
Issued by NWS Sioux Falls, SD

Home | Current Version | Previous Version | Text Only | Print | Product List | Glossary On
Versions: 1 2 3 4 5 6 7 8 9 10 11 12 13 14 15 16 17 18 19 20 21 22 23 24 25 26 27 28 29 30 31 32 33 34
758
FTUS43 KFSD 250540
TAFSUX
TAF
KSUX 250540Z 2506/2606 33011KT P6SM BKN200
     FM251400 01011KT P6SM SHRA OVC040
     FM251500 03012KT 5SM RA OVC015
     FM251800 01013KT 6SM RA OVC008
     FM260000 34014G22KT 5SM SHRA OVC008
     FM260200 34016G24KT P6SM -SHRA OVC008=

USA.gov is the U.S. government's official web portal to all federal, state and local government web resources and services.